createdAt,value
2018-06-24T00:01:01.434Z,94909.20
2018-06-24T00:03:30.095Z,94906.55
2018-06-24T00:05:58.720Z,94906.42
2018-06-24T00:08:27.361Z,94903.67
2018-06-24T00:10:56.065Z,94902.09
2018-06-24T00:13:24.698Z,94902.96
2018-06-24T00:15:53.351Z,94901.94
2018-06-24T00:18:21.969Z,94904.17
2018-06-24T00:20:50.627Z,94902.41
2018-06-24T00:23:19.300Z,94902.66
2018-06-24T00:25:48.058Z,94905.22
2018-06-24T00:28:16.686Z,94911.06
2018-06-24T00:30:45.326Z,94911.91
2018-06-24T00:33:13.946Z,94916.84
2018-06-24T00:35:42.669Z,94903.67
2018-06-24T00:38:11.325Z,94899.68
2018-06-24T00:40:40.046Z,94900.23
2018-06-24T00:43:08.679Z,94906.73
2018-06-24T00:45:37.283Z,94906.28
2018-06-24T00:48:05.974Z,94900.88
2018-06-24T00:50:34.608Z,94906.62
2018-06-24T00:53:03.368Z,94907.77
2018-06-24T00:55:31.983Z,94905.73
2018-06-24T00:58:00.686Z,94908.84
2018-06-24T01:00:29.338Z,94905.44
2018-06-24T01:02:57.947Z,94898.64
2018-06-24T01:05:26.607Z,94899.08
2018-06-24T01:07:55.258Z,94897.95
2018-06-24T01:10:23.850Z,94890.12
2018-06-24T01:12:52.516Z,94891.30
2018-06-24T01:15:21.179Z,94889.72
2018-06-24T01:17:49.833Z,94892.27
2018-06-24T01:20:18.551Z,94888.38
2018-06-24T01:22:47.242Z,94892.97
2018-06-24T01:25:15.846Z,94891.58
2018-06-24T01:27:44.430Z,94890.00
2018-06-24T01:30:13.088Z,94889.80
2018-06-24T01:32:41.711Z,94884.55
2018-06-24T01:35:10.439Z,94889.84
2018-06-24T01:37:39.039Z,94885.75
2018-06-24T01:40:07.710Z,94889.05
2018-06-24T01:42:36.344Z,94893.97
2018-06-24T01:45:04.989Z,94896.91
2018-06-24T01:47:33.628Z,94890.06
2018-06-24T01:50:02.258Z,94880.94
2018-06-24T01:52:30.881Z,94886.91
2018-06-24T01:54:59.495Z,94889.98
2018-06-24T01:57:28.110Z,94887.70
2018-06-24T01:59:56.723Z,94891.97
2018-06-24T02:02:25.404Z,94896.39
2018-06-24T02:04:54.036Z,94894.44
2018-06-24T02:07:22.755Z,94891.33
2018-06-24T02:09:51.361Z,94881.41
2018-06-24T02:12:20.030Z,94886.63
2018-06-24T02:14:48.655Z,94885.11
2018-06-24T02:17:17.302Z,94889.84
2018-06-24T02:19:46.002Z,94887.75
2018-06-24T02:22:14.761Z,94888.88
2018-06-24T02:24:43.398Z,94887.53
2018-06-24T02:27:12.079Z,94883.30
2018-06-24T02:29:40.788Z,94880.08
2018-06-24T02:32:09.402Z,94882.03
2018-06-24T02:34:38.031Z,94886.34
2018-06-24T02:37:06.895Z,94886.19
2018-06-24T02:39:35.518Z,94886.22
2018-06-24T02:42:04.181Z,94883.47
2018-06-24T02:44:32.879Z,94881.89
2018-06-24T02:47:01.871Z,94889.03
2018-06-24T02:49:30.577Z,94888.34
2018-06-24T02:51:59.241Z,94882.20
2018-06-24T02:54:27.835Z,94878.47
2018-06-24T02:56:56.508Z,94879.95
2018-06-24T02:59:25.176Z,94879.09
2018-06-24T03:01:53.857Z,94877.11
2018-06-24T03:04:22.472Z,94876.78
2018-06-24T03:06:51.157Z,94878.05
2018-06-24T03:09:19.872Z,94880.83
2018-06-24T03:11:48.564Z,94879.61
2018-06-24T03:14:17.239Z,94883.05
2018-06-24T03:16:45.865Z,94889.99
2018-06-24T03:19:14.460Z,94889.38
2018-06-24T03:21:43.113Z,94889.63
2018-06-24T03:24:11.745Z,94891.87
2018-06-24T03:26:40.367Z,94898.38
2018-06-24T03:29:09.054Z,94900.33
2018-06-24T03:31:37.719Z,94898.05
2018-06-24T03:34:06.559Z,94893.46
2018-06-24T03:36:35.227Z,94896.36
2018-06-24T03:39:04.028Z,94901.83
2018-06-24T03:41:32.658Z,94901.46
2018-06-24T03:44:01.515Z,94902.55
2018-06-24T03:46:30.131Z,94904.78
2018-06-24T03:48:59.290Z,94914.69
2018-06-24T03:51:27.919Z,94910.79
2018-06-24T03:53:56.566Z,94914.70
2018-06-24T03:56:25.166Z,94915.53
2018-06-24T03:58:53.850Z,94912.42
2018-06-24T04:01:22.486Z,94918.97
2018-06-24T04:03:51.113Z,94916.55
2018-06-24T04:06:19.804Z,94915.13
2018-06-24T04:08:48.442Z,94912.20
2018-06-24T04:11:17.053Z,94910.50
2018-06-24T04:13:45.722Z,94911.12
2018-06-24T04:16:14.348Z,94910.97
2018-06-24T04:18:43.874Z,94908.19
2018-06-24T04:21:15.550Z,94911.80
2018-06-24T04:23:45.297Z,94909.85
2018-06-24T04:26:14.058Z,94910.64
2018-06-24T04:28:42.746Z,94911.58
2018-06-24T04:31:12.068Z,94909.95
2018-06-24T04:33:41.061Z,94910.05
2018-06-24T04:36:09.712Z,94911.45
2018-06-24T04:38:38.600Z,94914.63
2018-06-24T04:41:07.357Z,94914.76
2018-06-24T04:43:35.970Z,94909.36
2018-06-24T04:46:04.628Z,94907.78
2018-06-24T04:48:33.243Z,94911.73
2018-06-24T04:51:01.876Z,94913.27
2018-06-24T04:53:30.550Z,94914.25
2018-06-24T04:55:59.196Z,94913.50
2018-06-24T04:58:27.830Z,94916.72
2018-06-24T05:00:56.886Z,94915.61
2018-06-24T05:03:25.564Z,94916.57
2018-06-24T05:05:54.312Z,94909.34
2018-06-24T05:08:22.972Z,94905.34
2018-06-24T05:10:51.682Z,94908.86
2018-06-24T05:13:20.348Z,94915.11
2018-06-24T05:15:49.058Z,94913.23
2018-06-24T05:18:17.681Z,94907.78
2018-06-24T05:20:46.305Z,94914.88
2018-06-24T05:23:14.988Z,94913.95
2018-06-24T05:25:43.615Z,94912.41
2018-06-24T05:28:12.236Z,94910.64
2018-06-24T05:30:41.046Z,94912.59
2018-06-24T05:33:09.661Z,94907.39
2018-06-24T05:35:38.291Z,94901.98
2018-06-24T05:38:06.942Z,94903.42
2018-06-24T05:40:35.618Z,94907.34
2018-06-24T05:43:04.320Z,94909.47
2018-06-24T05:45:33.055Z,94914.23
2018-06-24T05:48:01.858Z,94914.23
2018-06-24T05:50:30.688Z,94907.94
2018-06-24T05:52:59.333Z,94914.40
2018-06-24T05:55:27.979Z,94913.67
2018-06-24T05:57:56.635Z,94914.02
2018-06-24T06:00:25.490Z,94910.13
2018-06-24T06:02:54.287Z,94908.53
2018-06-24T06:05:23.242Z,94912.38
2018-06-24T06:07:52.003Z,94911.83
2018-06-24T06:10:20.788Z,94916.38
2018-06-24T06:12:49.362Z,94916.23
2018-06-24T06:15:18.126Z,94908.87
2018-06-24T06:17:46.795Z,94903.58
2018-06-24T06:20:15.466Z,94907.14
2018-06-24T06:22:44.116Z,94907.45
2018-06-24T06:25:12.805Z,94907.55
2018-06-24T06:27:41.656Z,94910.98
2018-06-24T06:30:10.515Z,94909.91
2018-06-24T06:32:40.133Z,94902.61
2018-06-24T06:35:08.798Z,94900.42
2018-06-24T06:37:37.442Z,94902.94
2018-06-24T06:40:06.346Z,94897.91
2018-06-24T06:42:34.959Z,94894.30
2018-06-24T06:45:03.760Z,94887.31
2018-06-24T06:47:32.428Z,94885.27
2018-06-24T06:50:01.058Z,94890.00
2018-06-24T06:52:30.609Z,94894.59
2018-06-24T06:54:59.295Z,94892.34
2018-06-24T06:57:28.652Z,94897.94
2018-06-24T06:59:57.321Z,94897.95
2018-06-24T07:02:25.978Z,94894.10
2018-06-24T07:04:54.586Z,94891.84
2018-06-24T07:07:23.252Z,94892.17
2018-06-24T07:09:51.882Z,94893.07
2018-06-24T07:12:20.589Z,94892.42
2018-06-24T07:14:49.212Z,94894.16
2018-06-24T07:17:17.957Z,94888.75
2018-06-24T07:19:46.618Z,94885.53
2018-06-24T07:22:15.277Z,94887.47
2018-06-24T07:24:43.909Z,94883.73
2018-06-24T07:27:12.619Z,94881.42
2018-06-24T07:29:41.268Z,94882.11
2018-06-24T07:32:10.000Z,94878.58
2018-06-24T07:34:38.614Z,94881.89
2018-06-24T07:37:07.244Z,94887.16
2018-06-24T07:39:35.903Z,94890.89
2018-06-24T07:42:04.543Z,94888.17
2018-06-24T07:44:33.157Z,94883.22
2018-06-24T07:47:01.813Z,94878.39
2018-06-24T19:25:17.594Z,94800.88
2018-06-24T19:27:46.383Z,94803.35
2018-06-24T19:30:15.023Z,94801.69
2018-06-24T19:32:43.792Z,94800.76
2018-06-24T19:35:12.494Z,94802.37
2018-06-24T19:37:41.346Z,94799.09
2018-06-24T19:40:10.124Z,94798.56
2018-06-24T19:42:39.675Z,94803.61
2018-06-24T19:45:08.830Z,94804.30
2018-06-24T19:47:37.516Z,94803.44
2018-06-24T19:50:06.446Z,94805.84
2018-06-24T19:52:35.435Z,94810.78
2018-06-24T19:55:04.284Z,94813.17
2018-06-24T19:57:32.981Z,94811.49
2018-06-24T20:00:02.157Z,94809.91
2018-06-24T20:02:30.899Z,94814.79
2018-06-24T20:04:59.682Z,94815.57
2018-06-24T20:07:28.343Z,94814.20
2018-06-24T20:09:57.082Z,94810.97
2018-06-24T20:12:27.280Z,94817.11
2018-06-24T20:14:56.036Z,94810.56
2018-06-24T20:17:24.798Z,94812.45
2018-06-24T20:19:53.492Z,94808.42
2018-06-24T20:22:22.128Z,94796.97
2018-06-24T20:24:50.969Z,94807.47
2018-06-24T20:27:19.669Z,94806.31
2018-06-24T20:29:48.435Z,94804.15
2018-06-24T20:32:17.037Z,94806.91
2018-06-24T20:34:45.900Z,94804.91
2018-06-24T20:37:14.623Z,94807.98
2018-06-24T20:39:43.348Z,94806.19
2018-06-24T20:42:12.031Z,94800.31
2018-06-24T20:44:40.789Z,94805.53
2018-06-24T20:47:09.559Z,94803.34
2018-06-24T20:49:38.514Z,94800.63
2018-06-24T20:52:07.288Z,94806.72
2018-06-24T20:54:36.037Z,94804.19
2018-06-24T20:57:04.850Z,94803.56
2018-06-24T20:59:33.631Z,94799.45
2018-06-24T21:02:02.347Z,94795.73
2018-06-24T21:04:31.717Z,94797.25
2018-06-24T21:07:00.406Z,94799.66
2018-06-24T21:09:29.120Z,94798.70
2018-06-24T21:11:57.771Z,94789.51
2018-06-24T21:14:26.432Z,94787.22
2018-06-24T21:16:55.142Z,94786.00
2018-06-24T21:19:23.798Z,94790.46
2018-06-24T21:21:52.499Z,94795.11
2018-06-24T21:24:25.435Z,94789.67
2018-06-24T21:26:54.136Z,94787.37
2018-06-24T21:29:22.905Z,94788.30
2018-06-24T21:31:51.611Z,94790.41
2018-06-24T21:34:20.343Z,94788.70
2018-06-24T21:36:49.050Z,94785.06
2018-06-24T21:39:17.768Z,94791.92
2018-06-24T21:41:46.400Z,94789.30
2018-06-24T21:44:15.033Z,94789.23
2018-06-24T21:46:43.713Z,94789.45
2018-06-24T21:49:12.438Z,94784.48
2018-06-24T21:51:41.169Z,94787.10
2018-06-24T21:54:09.872Z,94781.27
2018-06-24T21:56:38.629Z,94781.75
2018-06-24T21:59:07.378Z,94781.97
2018-06-24T22:01:37.036Z,94785.93
2018-06-24T22:04:05.965Z,94781.61
2018-06-24T22:06:34.679Z,94787.48
2018-06-24T22:09:03.740Z,94784.55
2018-06-24T22:11:32.514Z,94776.78
2018-06-24T22:14:01.146Z,94778.30
2018-06-24T22:16:29.799Z,94785.07
2018-06-24T22:18:58.466Z,94777.10
2018-06-24T22:21:27.358Z,94781.53
2018-06-24T22:23:56.370Z,94779.02
2018-06-24T22:26:25.153Z,94778.31
2018-06-24T22:28:53.849Z,94780.73
2018-06-24T22:31:22.543Z,94787.40
2018-06-24T22:33:51.249Z,94785.68
2018-06-24T22:36:19.948Z,94783.56
2018-06-24T22:38:48.669Z,94787.89
2018-06-24T22:41:17.320Z,94782.55
2018-06-24T22:43:46.072Z,94785.90
2018-06-24T22:46:14.903Z,94784.56
2018-06-24T22:48:43.552Z,94784.56
2018-06-24T22:51:12.939Z,94780.64
2018-06-24T22:53:41.645Z,94778.22
2018-06-24T22:56:10.358Z,94777.11
2018-06-24T22:58:38.965Z,94776.61
2018-06-24T23:01:07.730Z,94771.63
2018-06-24T23:03:36.485Z,94776.09
2018-06-24T23:06:05.182Z,94786.89
2018-06-24T23:08:33.907Z,94789.72
2018-06-24T23:11:02.588Z,94790.02
2018-06-24T23:13:31.948Z,94781.75
2018-06-24T23:16:00.711Z,94775.30
2018-06-24T23:18:29.372Z,94774.76
2018-06-24T23:20:58.242Z,94780.48
2018-06-24T23:23:26.933Z,94779.48
2018-06-24T23:25:55.638Z,94775.14
2018-06-24T23:28:24.748Z,94777.06
2018-06-24T23:30:53.467Z,94776.34
2018-06-24T23:33:22.145Z,94775.34
2018-06-24T23:35:50.857Z,94778.03
2018-06-24T23:38:19.526Z,94781.16
2018-06-24T23:40:48.307Z,94776.62
2018-06-24T23:43:16.966Z,94775.09
2018-06-24T23:45:45.638Z,94773.27
2018-06-24T23:48:14.279Z,94768.64
2018-06-24T23:50:42.958Z,94768.14
2018-06-24T23:53:11.644Z,94770.48
2018-06-24T23:55:40.552Z,94769.53
2018-06-24T23:58:09.298Z,94772.73
